createdAt,value
2023-09-15T00:00:00.304Z,100945.09
2023-09-15T00:03:02.059Z,100948.63
2023-09-15T00:06:05.194Z,100956.44
2023-09-15T00:09:15.602Z,100944.09
2023-09-15T00:12:17.346Z,100947.28
2023-09-15T00:15:19.470Z,100934.63
2023-09-15T00:18:21.123Z,100937.94
2023-09-15T00:21:22.914Z,100938.81
2023-09-15T00:24:24.538Z,100945.66
2023-09-15T00:27:26.116Z,100947.31
2023-09-15T00:30:28.858Z,100956.31
2023-09-15T00:33:30.492Z,100963.31
2023-09-15T00:36:32.957Z,100968.31
2023-09-15T00:39:34.778Z,100967.16
2023-09-15T00:42:36.367Z,100969.00
2023-09-15T00:45:37.990Z,100976.81
2023-09-15T00:48:41.009Z,100976.47
2023-09-15T00:51:42.748Z,100961.00
2023-09-15T00:54:44.724Z,100969.97
2023-09-15T00:57:47.806Z,100967.16
2023-09-15T01:00:49.647Z,100978.50
2023-09-15T01:03:51.483Z,100973.47
2023-09-15T01:06:54.508Z,100972.81
2023-09-15T01:09:56.560Z,100972.47
2023-09-15T01:12:58.246Z,100971.50
2023-09-15T01:16:44.434Z,100968.97
2023-09-15T01:20:10.563Z,100974.81
2023-09-15T01:23:27.229Z,100969.47
2023-09-15T01:27:04.182Z,100977.47
2023-09-15T01:30:06.582Z,100966.97
2023-09-15T01:33:10.456Z,100967.47
2023-09-15T01:36:13.000Z,100967.94
2023-09-15T01:39:14.597Z,100983.28
2023-09-15T01:42:16.247Z,100964.94
2023-09-15T01:45:17.827Z,100982.06
2023-09-15T01:48:20.616Z,100977.03
2023-09-15T01:51:23.821Z,100980.19
2023-09-15T01:54:26.813Z,100985.66
2023-09-15T01:57:28.470Z,100974.50
2023-09-15T02:00:37.312Z,100973.31
2023-09-15T02:03:39.092Z,100990.34
2023-09-15T02:06:40.849Z,100985.16
2023-09-15T02:09:42.693Z,100988.31
2023-09-15T02:12:44.418Z,100993.31
2023-09-15T02:15:46.062Z,100989.78
2023-09-15T02:18:48.596Z,100994.97
2023-09-15T02:21:50.543Z,100988.47
2023-09-15T02:24:52.121Z,100996.06
2023-09-15T02:27:53.728Z,100993.50
2023-09-15T02:30:56.912Z,100989.50
2023-09-15T02:34:01.342Z,100978.50
2023-09-15T02:37:04.305Z,101000.34
2023-09-15T02:40:08.024Z,100997.19
2023-09-15T02:43:12.380Z,100992.81
2023-09-15T02:46:14.242Z,100988.13
2023-09-15T02:49:15.930Z,101002.75
2023-09-15T02:52:17.623Z,100997.09
2023-09-15T02:55:19.540Z,101000.09
2023-09-15T02:58:21.242Z,100992.41
2023-09-15T03:01:22.974Z,101001.53
2023-09-15T03:04:24.655Z,100997.31
2023-09-15T03:07:26.315Z,101002.50
2023-09-15T03:10:27.947Z,100998.13
2023-09-15T03:13:29.563Z,101009.16
2023-09-15T03:16:31.419Z,101009.00
2023-09-15T03:19:34.156Z,100998.63
2023-09-15T03:22:35.772Z,101003.06
2023-09-15T03:25:37.432Z,101005.56
2023-09-15T03:28:39.613Z,100993.66
2023-09-15T03:31:42.473Z,101005.13
2023-09-15T03:34:44.272Z,101007.44
2023-09-15T03:37:46.580Z,101001.88
2023-09-15T03:40:48.203Z,101003.72
2023-09-15T03:43:49.986Z,100996.94
2023-09-15T03:46:51.723Z,100998.06
2023-09-15T03:49:53.407Z,101005.59
2023-09-15T03:52:54.988Z,101001.88
2023-09-15T03:55:56.606Z,100993.31
2023-09-15T03:58:58.428Z,100997.25
2023-09-15T04:02:00.222Z,101001.72
2023-09-15T04:05:02.048Z,100998.63
2023-09-15T04:08:03.902Z,100998.25
2023-09-15T04:11:05.561Z,101006.34
2023-09-15T04:14:08.074Z,101002.44
2023-09-15T04:17:10.722Z,101019.03
2023-09-15T04:20:13.211Z,101013.06
2023-09-15T04:23:14.986Z,101023.81
2023-09-15T04:26:16.621Z,101017.75
2023-09-15T04:29:18.267Z,101028.69
2023-09-15T04:32:20.466Z,101023.00
2023-09-15T04:35:22.046Z,101024.59
2023-09-15T04:38:24.227Z,101033.94
2023-09-15T04:41:25.870Z,101029.22
2023-09-15T04:44:27.464Z,101030.88
2023-09-15T04:47:36.901Z,101026.84
2023-09-15T04:50:38.654Z,101035.59
2023-09-15T04:53:40.356Z,101034.91
2023-09-15T04:56:41.920Z,101037.94
2023-09-15T04:59:46.067Z,101039.34
2023-09-15T05:02:47.749Z,101039.25
2023-09-15T05:05:52.199Z,101051.19
2023-09-15T05:08:55.070Z,101044.97
2023-09-15T05:11:58.480Z,101043.13
2023-09-15T05:15:00.251Z,101047.41
2023-09-15T05:18:02.035Z,101046.34
2023-09-15T05:21:04.244Z,101051.09
2023-09-15T05:24:06.181Z,101038.91
2023-09-15T05:27:07.988Z,101043.84
2023-09-15T05:30:12.131Z,101040.72
2023-09-15T05:33:17.311Z,101043.13
2023-09-15T05:36:19.437Z,101056.50
2023-09-15T05:39:21.165Z,101050.00
2023-09-15T05:42:23.134Z,101056.84
2023-09-15T05:45:25.380Z,101051.84
2023-09-15T05:48:27.698Z,101048.50
2023-09-15T05:51:29.873Z,101046.97
2023-09-15T05:54:31.533Z,101049.97
2023-09-15T05:57:33.202Z,101060.38
2023-09-15T06:00:34.916Z,101061.53
2023-09-15T06:03:37.779Z,101060.56
2023-09-15T06:06:39.463Z,101068.97
2023-09-15T06:09:41.069Z,101060.97
2023-09-15T06:12:42.705Z,101072.94
2023-09-15T06:15:44.323Z,101070.34
2023-09-15T06:18:46.826Z,101064.66
2023-09-15T06:21:48.614Z,101068.22
2023-09-15T06:24:50.282Z,101059.72
2023-09-15T06:27:51.985Z,101066.47
2023-09-15T06:30:53.679Z,101058.47
2023-09-15T06:33:55.375Z,101061.72
2023-09-15T06:36:57.983Z,101062.34
2023-09-15T06:39:59.692Z,101064.25
2023-09-15T06:43:01.329Z,101069.44
2023-09-15T06:46:03.853Z,101069.09
2023-09-15T06:49:05.613Z,101061.97
2023-09-15T06:52:07.671Z,101063.88
2023-09-15T06:55:09.468Z,101063.63
2023-09-15T06:58:12.301Z,101059.44
2023-09-15T07:01:14.194Z,101072.56
2023-09-15T07:04:16.079Z,101075.03
2023-09-15T07:07:17.802Z,101071.56
2023-09-15T07:10:19.600Z,101067.00
2023-09-15T07:13:21.296Z,101074.09
2023-09-15T07:16:23.143Z,101073.75
2023-09-15T07:19:25.893Z,101071.09
2023-09-15T07:22:28.705Z,101080.66
2023-09-15T07:25:30.946Z,101070.69
2023-09-15T07:28:32.874Z,101083.97
2023-09-15T07:31:36.893Z,101079.16
2023-09-15T07:34:38.913Z,101082.91
2023-09-15T07:37:40.560Z,101088.56
2023-09-15T07:40:42.236Z,101085.34
2023-09-15T07:43:44.746Z,101085.38
2023-09-15T07:46:46.529Z,101083.97
2023-09-15T07:49:49.294Z,101079.81
2023-09-15T07:52:50.914Z,101093.09
2023-09-15T07:55:52.633Z,101070.47
2023-09-15T07:58:55.113Z,101078.66
2023-09-15T08:01:57.346Z,101068.56
2023-09-15T08:04:59.076Z,101071.41
2023-09-15T08:08:00.722Z,101072.13
2023-09-15T08:11:02.501Z,101064.75
2023-09-15T08:14:04.415Z,101052.69
2023-09-15T08:17:08.043Z,101067.56
2023-09-15T08:20:13.172Z,101063.38
2023-09-15T08:23:14.821Z,101065.19
2023-09-15T08:26:16.561Z,101073.41
2023-09-15T08:29:18.368Z,101059.66
2023-09-15T08:32:20.007Z,101067.16
2023-09-15T08:35:22.332Z,101067.69
2023-09-15T08:38:25.086Z,101064.47
2023-09-15T08:41:40.447Z,101066.03
2023-09-15T08:44:44.092Z,101068.94
2023-09-15T08:47:51.852Z,101062.16
2023-09-15T08:50:53.949Z,101066.34
2023-09-15T08:53:57.731Z,101052.34
2023-09-15T08:56:59.785Z,101061.19
2023-09-15T09:00:02.066Z,101056.38
2023-09-15T09:03:05.346Z,101054.09
2023-09-15T09:06:11.892Z,101063.03
2023-09-15T09:09:15.181Z,101061.50
2023-09-15T09:12:17.007Z,101062.88
2023-09-15T09:15:22.261Z,101058.97
2023-09-15T09:18:23.951Z,101057.00
2023-09-15T09:21:27.308Z,101063.81
2023-09-15T09:24:28.989Z,101055.84
2023-09-15T09:27:35.430Z,101063.81
2023-09-15T09:30:37.308Z,101057.34
2023-09-15T09:33:42.770Z,101056.03
2023-09-15T09:36:52.342Z,101057.31
2023-09-15T09:39:57.457Z,101060.38
2023-09-15T09:42:59.317Z,101062.53
2023-09-15T09:46:01.796Z,101065.00
2023-09-15T09:49:04.826Z,101063.03
2023-09-15T09:52:06.951Z,101071.28
2023-09-15T09:55:10.273Z,101068.84
2023-09-15T09:58:15.709Z,101062.97
2023-09-15T10:01:17.481Z,101062.50
2023-09-15T10:04:21.432Z,101063.09
2023-09-15T10:07:23.953Z,101058.41
2023-09-15T10:10:28.057Z,101070.69
2023-09-15T10:13:31.219Z,101053.06
2023-09-15T10:16:33.704Z,101054.00
2023-09-15T10:19:35.698Z,101054.03
2023-09-15T10:22:39.011Z,101050.69
2023-09-15T10:25:44.425Z,101045.31
2023-09-15T10:28:50.884Z,101053.25
2023-09-15T10:31:53.618Z,101033.59
2023-09-15T10:34:55.350Z,101023.38
2023-09-15T10:38:00.752Z,101023.25
2023-09-15T10:41:06.622Z,101023.16
2023-09-15T10:44:09.072Z,101014.84
2023-09-15T10:47:22.211Z,101025.09
2023-09-15T10:50:32.041Z,101018.81
2023-09-15T10:53:57.759Z,101026.59
2023-09-15T10:57:00.969Z,101017.78
2023-09-15T11:00:07.672Z,101014.91
2023-09-15T11:03:10.377Z,101020.19
2023-09-15T11:06:14.053Z,101017.41
2023-09-15T11:09:16.588Z,101023.38
2023-09-15T11:12:18.285Z,101024.91
2023-09-15T11:15:19.915Z,101005.38
2023-09-15T11:18:21.716Z,101012.47
2023-09-15T11:21:24.827Z,101003.66
2023-09-15T11:24:26.466Z,101010.84
2023-09-15T11:27:28.158Z,101010.44
2023-09-15T11:30:30.519Z,101007.19
2023-09-15T11:33:32.589Z,101013.56
2023-09-15T11:36:37.389Z,101013.66
2023-09-15T11:39:39.247Z,100997.13
2023-09-15T11:42:40.945Z,100992.94
2023-09-15T11:45:43.500Z,100985.97
2023-09-15T11:48:50.135Z,100994.59
2023-09-15T11:51:53.512Z,100985.66
2023-09-15T11:54:55.149Z,100983.44
2023-09-15T11:57:57.869Z,100970.34
2023-09-15T12:00:59.856Z,100965.38
2023-09-15T12:04:02.598Z,100973.19
2023-09-15T12:07:06.754Z,100960.22
2023-09-15T12:10:08.633Z,100962.97
2023-09-15T12:13:10.326Z,100964.25
2023-09-15T12:16:18.920Z,100976.38
2023-09-15T12:19:22.544Z,100971.69
2023-09-15T12:22:31.831Z,100969.09
2023-09-15T12:25:33.431Z,100961.47
2023-09-15T12:28:36.010Z,100961.75
2023-09-15T12:31:48.796Z,100944.53
2023-09-15T12:34:50.558Z,100942.56
2023-09-15T12:37:53.564Z,100938.44
2023-09-15T12:40:55.141Z,100931.47
2023-09-15T12:43:58.582Z,100933.69
2023-09-15T12:47:00.760Z,100930.09
2023-09-15T12:50:06.589Z,100924.00
2023-09-15T12:53:08.322Z,100919.72
2023-09-15T12:56:09.898Z,100924.44
2023-09-15T12:59:12.466Z,100921.25
2023-09-15T13:02:14.480Z,100923.91
2023-09-15T13:05:16.336Z,100926.75
2023-09-15T13:08:18.075Z,100913.44
2023-09-15T13:11:19.782Z,100918.34
2023-09-15T13:14:21.367Z,100906.50
2023-09-15T13:17:23.010Z,100911.66
2023-09-15T13:20:24.693Z,100897.56
2023-09-15T13:23:26.285Z,100896.91
2023-09-15T13:26:29.962Z,100890.19
2023-09-15T13:29:31.547Z,100886.31
2023-09-15T13:32:33.150Z,100894.28
2023-09-15T13:35:34.830Z,100892.06
2023-09-15T13:38:36.666Z,100881.38
2023-09-15T13:41:38.322Z,100883.13
2023-09-15T13:44:41.051Z,100882.41
2023-09-15T13:47:42.752Z,100883.69
2023-09-15T13:50:44.350Z,100874.47
2023-09-15T13:53:46.214Z,100870.81
2023-09-15T13:56:48.250Z,100867.56
2023-09-15T13:59:50.586Z,100860.88
2023-09-15T14:02:52.234Z,100861.38
2023-09-15T14:05:54.718Z,100855.56
2023-09-15T14:08:56.304Z,100850.25
2023-09-15T14:11:57.931Z,100843.97
2023-09-15T14:14:59.612Z,100844.88
2023-09-15T14:18:01.227Z,100843.66
2023-09-15T14:21:02.914Z,100844.06
2023-09-15T14:24:11.796Z,100855.63
2023-09-15T14:27:13.459Z,100849.00
2023-09-15T14:30:15.156Z,100845.63
2023-09-15T14:33:16.786Z,100848.41
2023-09-15T14:36:18.754Z,100841.00
2023-09-15T14:39:20.621Z,100854.47
2023-09-15T14:42:23.058Z,100852.69
2023-09-15T14:45:25.989Z,100851.84
2023-09-15T14:48:27.732Z,100851.44
2023-09-15T14:51:29.435Z,100855.59
2023-09-15T14:54:31.100Z,100860.25
2023-09-15T14:57:32.871Z,100865.66
2023-09-15T15:00:34.598Z,100865.47
2023-09-15T15:03:36.318Z,100865.28
2023-09-15T15:06:38.299Z,100852.28
2023-09-15T15:09:41.140Z,100860.44
2023-09-15T15:12:42.832Z,100859.81
2023-09-15T15:15:45.830Z,100852.28
2023-09-15T15:18:47.957Z,100859.38
2023-09-15T15:21:50.275Z,100851.22
2023-09-15T15:24:51.996Z,100846.47
2023-09-15T15:27:53.687Z,100843.88
2023-09-15T15:30:55.362Z,100851.44
2023-09-15T15:33:58.150Z,100856.22
2023-09-15T15:37:01.932Z,100844.63
2023-09-15T15:40:04.419Z,100847.47
2023-09-15T15:43:06.264Z,100850.34
2023-09-15T15:46:10.166Z,100849.38
2023-09-15T15:49:11.747Z,100850.47
2023-09-15T15:52:13.322Z,100851.69
2023-09-15T15:55:15.919Z,100848.84
2023-09-15T15:58:18.024Z,100838.44
2023-09-15T16:01:19.761Z,100855.63
2023-09-15T16:04:21.420Z,100850.78
2023-09-15T16:07:25.538Z,100850.44
2023-09-15T16:10:28.301Z,100855.88
2023-09-15T16:13:29.905Z,100855.50
2023-09-15T16:16:31.648Z,100854.53
2023-09-15T16:19:33.357Z,100841.19
2023-09-15T16:22:35.073Z,100852.06
2023-09-15T16:25:41.063Z,100847.66
2023-09-15T16:28:42.663Z,100857.28
2023-09-15T16:31:44.359Z,100860.56
2023-09-15T16:34:46.071Z,100854.72
2023-09-15T16:37:47.760Z,100862.56
2023-09-15T16:40:49.399Z,100852.22
2023-09-15T16:43:52.416Z,100860.94
2023-09-15T16:46:54.071Z,100852.28
2023-09-15T16:49:55.694Z,100862.69
2023-09-15T16:52:57.294Z,100858.56
2023-09-15T16:55:59.015Z,100867.88
2023-09-15T16:59:00.694Z,100876.78
2023-09-15T17:02:03.204Z,100876.50
2023-09-15T17:05:07.030Z,100884.16
2023-09-15T17:08:08.712Z,100886.97
2023-09-15T17:11:11.688Z,100890.44
2023-09-15T17:14:13.326Z,100878.78
2023-09-15T17:17:21.410Z,100896.78
2023-09-15T17:20:23.152Z,100893.69
2023-09-15T17:23:25.252Z,100893.06
2023-09-15T17:26:27.235Z,100886.16
2023-09-15T17:29:28.838Z,100896.47
2023-09-15T17:32:30.564Z,100895.78
2023-09-15T17:35:32.220Z,100902.59
2023-09-15T17:38:33.848Z,100908.75
2023-09-15T17:41:35.471Z,100912.34
2023-09-15T17:44:37.127Z,100910.41
2023-09-15T17:47:38.809Z,100898.06
2023-09-15T17:50:40.430Z,100903.81
2023-09-15T17:53:42.050Z,100906.91
2023-09-15T17:56:43.720Z,100916.38
2023-09-15T17:59:45.401Z,100913.56
2023-09-15T18:02:47.175Z,100908.78
2023-09-15T18:05:48.907Z,100900.66
2023-09-15T18:08:51.380Z,100906.03
2023-09-15T18:11:53.028Z,100917.78
2023-09-15T18:14:56.204Z,100915.00
2023-09-15T18:17:58.173Z,100922.28
2023-09-15T18:20:59.879Z,100924.59
2023-09-15T18:24:01.548Z,100917.19
2023-09-15T18:27:05.009Z,100919.06
2023-09-15T18:30:07.538Z,100927.38
2023-09-15T18:33:09.553Z,100929.03
2023-09-15T18:36:11.460Z,100930.66
2023-09-15T18:39:13.092Z,100934.44
2023-09-15T18:42:14.761Z,100937.94
2023-09-15T18:45:16.502Z,100936.09
2023-09-15T18:48:18.363Z,100939.81
2023-09-15T18:51:20.617Z,100941.00
2023-09-15T18:54:25.637Z,100939.16
2023-09-15T18:57:29.029Z,100935.59
2023-09-15T19:00:30.719Z,100937.44
2023-09-15T19:03:32.763Z,100940.31
2023-09-15T19:06:34.500Z,100938.59
2023-09-15T19:09:36.289Z,100941.94
2023-09-15T19:12:39.540Z,100942.31
2023-09-15T19:15:43.383Z,100939.28
2023-09-15T19:18:45.312Z,100942.97
2023-09-15T19:21:46.998Z,100958.22
2023-09-15T19:24:48.855Z,100949.00
2023-09-15T19:27:50.495Z,100942.91
2023-09-15T19:30:56.589Z,100953.28
2023-09-15T19:33:58.343Z,100949.97
2023-09-15T19:37:00.387Z,100953.47
2023-09-15T19:40:02.084Z,100952.28
2023-09-15T19:43:08.618Z,100954.22
2023-09-15T19:46:13.806Z,100956.22
2023-09-15T19:49:15.609Z,100958.00
2023-09-15T19:52:17.306Z,100946.88
2023-09-15T19:55:18.916Z,100954.72
2023-09-15T19:58:20.550Z,100944.66
2023-09-15T20:01:22.229Z,100948.34
2023-09-15T20:04:23.950Z,100954.06
2023-09-15T20:07:25.606Z,100957.78
2023-09-15T20:10:27.754Z,100953.34
2023-09-15T20:13:29.382Z,100964.06
2023-09-15T20:16:31.041Z,100958.09
2023-09-15T20:19:40.906Z,100947.09
2023-09-15T20:22:43.428Z,100945.97
2023-09-15T20:25:45.044Z,100955.69
2023-09-15T20:28:47.781Z,100952.16
2023-09-15T20:31:49.826Z,100955.69
2023-09-15T20:34:51.519Z,100952.16
2023-09-15T20:37:53.935Z,100949.69
2023-09-15T20:40:56.439Z,100947.47
2023-09-15T20:43:58.182Z,100954.47
2023-09-15T20:46:59.777Z,100946.25
2023-09-15T20:50:01.429Z,100955.50
2023-09-15T20:53:03.790Z,100954.69
2023-09-15T20:56:05.412Z,100952.75
2023-09-15T20:59:07.300Z,100962.19
2023-09-15T21:02:08.988Z,100962.94
2023-09-15T21:05:11.793Z,100962.94
2023-09-15T21:08:13.400Z,100964.13
2023-09-15T21:11:15.054Z,100961.97
2023-09-15T21:14:16.781Z,100958.66
2023-09-15T21:17:18.463Z,100970.03
2023-09-15T21:20:20.273Z,100964.56
2023-09-15T21:23:22.050Z,100972.91
2023-09-15T21:26:24.058Z,100960.88
2023-09-15T21:29:25.654Z,100964.88
2023-09-15T21:32:27.410Z,100964.66
2023-09-15T21:35:29.122Z,100961.97
2023-09-15T21:38:31.149Z,100979.63
2023-09-15T21:41:33.371Z,100982.97
2023-09-15T21:44:35.264Z,100981.56
2023-09-15T21:47:37.065Z,100981.38
2023-09-15T21:50:39.398Z,100981.84
2023-09-15T21:53:41.822Z,100985.06
2023-09-15T21:56:43.466Z,100986.47
2023-09-15T21:59:45.828Z,100993.47
2023-09-15T22:02:48.650Z,100988.97
2023-09-15T22:05:53.471Z,100986.28
2023-09-15T22:08:55.434Z,100983.50
2023-09-15T22:11:57.371Z,100980.44
2023-09-15T22:14:58.970Z,100978.50
2023-09-15T22:18:01.192Z,100974.38
2023-09-15T22:21:03.019Z,100980.00
2023-09-15T22:24:04.897Z,100976.31
2023-09-15T22:27:06.541Z,100972.69
2023-09-15T22:30:08.882Z,100977.69
2023-09-15T22:33:10.572Z,100958.84
2023-09-15T22:36:12.196Z,100968.16
2023-09-15T22:39:13.839Z,100966.34
2023-09-15T22:42:15.543Z,100964.50
2023-09-15T22:45:24.597Z,100970.38
2023-09-15T22:48:28.204Z,100964.22
2023-09-15T22:51:30.680Z,100967.63
2023-09-15T22:54:32.326Z,100974.00
2023-09-15T22:57:34.850Z,100973.16
2023-09-15T23:00:36.698Z,100974.00
2023-09-15T23:03:38.439Z,100972.31
2023-09-15T23:06:40.180Z,100971.31
2023-09-15T23:09:41.890Z,100970.84
2023-09-15T23:12:44.009Z,100970.38
2023-09-15T23:15:45.675Z,100967.25
2023-09-15T23:18:48.696Z,100968.63
2023-09-15T23:21:50.457Z,100962.81
2023-09-15T23:24:52.941Z,100967.97
2023-09-15T23:27:56.450Z,100961.50
2023-09-15T23:30:58.366Z,100960.69
2023-09-15T23:34:00.419Z,100954.63
2023-09-15T23:37:02.083Z,100954.38
2023-09-15T23:40:05.747Z,100950.31
2023-09-15T23:43:08.587Z,100960.19
2023-09-15T23:46:10.214Z,100958.88
2023-09-15T23:49:11.880Z,100964.06
2023-09-15T23:52:13.547Z,100968.75
2023-09-15T23:55:15.843Z,100975.41
2023-09-15T23:58:17.497Z,100971.63
